createdAt,value
2022-11-18T00:01:24.599Z,11.00
2022-11-18T00:04:30.127Z,11.11
2022-11-18T00:07:35.571Z,11.19
2022-11-18T00:10:41.921Z,11.15
2022-11-18T00:14:06.212Z,11.07
2022-11-18T00:17:11.442Z,11.07
2022-11-18T00:20:17.732Z,11.10
2022-11-18T00:23:23.556Z,11.16
2022-11-18T00:26:29.318Z,10.98
2022-11-18T00:29:35.099Z,11.03
2022-11-18T00:32:40.884Z,11.04
2022-11-18T00:35:54.535Z,10.87
2022-11-18T00:39:00.143Z,11.02
2022-11-18T00:42:24.747Z,10.89
2022-11-18T00:45:30.289Z,10.94
2022-11-18T00:48:36.820Z,10.98
2022-11-18T00:51:42.542Z,10.92
2022-11-18T00:54:48.606Z,10.74
2022-11-18T00:57:54.202Z,10.86
2022-11-18T01:00:59.782Z,10.72
2022-11-18T01:04:05.490Z,10.83
2022-11-18T01:07:10.935Z,10.81
2022-11-18T01:10:17.428Z,10.90
2022-11-18T01:13:24.820Z,10.92
2022-11-18T01:16:31.506Z,10.90
2022-11-18T01:19:37.562Z,10.81
2022-11-18T01:22:43.559Z,10.85
2022-11-18T01:25:50.542Z,10.91
2022-11-18T01:29:00.491Z,10.98
2022-11-18T01:32:23.977Z,10.94
2022-11-18T01:35:42.629Z,10.98
2022-11-18T01:38:51.148Z,10.95
2022-11-18T01:41:56.747Z,10.91
2022-11-18T01:45:25.927Z,10.80
2022-11-18T01:48:36.172Z,10.85
2022-11-18T01:51:57.060Z,10.83
2022-11-18T01:55:11.313Z,10.89
2022-11-18T01:58:24.335Z,10.79
2022-11-18T02:01:30.299Z,10.91
2022-11-18T02:04:36.791Z,10.88
2022-11-18T02:07:44.465Z,10.82
2022-11-18T02:10:50.325Z,10.78
2022-11-18T02:13:56.263Z,10.74
2022-11-18T02:17:37.337Z,10.77
2022-11-18T02:20:46.487Z,10.89
2022-11-18T02:24:09.681Z,10.94
2022-11-18T02:27:42.256Z,10.98
2022-11-18T02:30:53.482Z,11.04
2022-11-18T02:34:14.758Z,11.04
2022-11-18T02:37:38.386Z,11.08
2022-11-18T02:40:48.341Z,11.05
2022-11-18T02:44:07.381Z,11.06
2022-11-18T02:47:17.125Z,11.04
2022-11-18T02:50:27.973Z,11.04
2022-11-18T02:53:35.017Z,11.03
2022-11-18T02:56:42.671Z,11.05
2022-11-18T02:59:48.897Z,11.07
2022-11-18T03:02:54.824Z,11.01
2022-11-18T03:06:20.169Z,11.02
2022-11-18T03:09:26.061Z,10.96
2022-11-18T03:12:58.484Z,11.01
2022-11-18T03:16:15.335Z,10.97
2022-11-18T03:19:28.722Z,10.97
2022-11-18T03:22:34.362Z,10.88
2022-11-18T03:25:45.678Z,10.88
2022-11-18T03:29:16.480Z,10.80
2022-11-18T03:32:27.499Z,10.68
2022-11-18T03:35:36.822Z,10.87
2022-11-18T03:38:51.983Z,10.96
2022-11-18T03:42:11.034Z,10.94
2022-11-18T03:45:22.930Z,10.89
2022-11-18T03:48:36.547Z,10.92
2022-11-18T03:51:55.550Z,10.99
2022-11-18T03:55:06.305Z,10.96
2022-11-18T03:58:25.873Z,11.01
2022-11-18T04:01:51.742Z,10.99
2022-11-18T04:04:59.712Z,11.03
2022-11-18T04:08:28.007Z,10.95
2022-11-18T04:12:02.633Z,10.94
2022-11-18T04:15:08.581Z,10.92
2022-11-18T04:18:14.106Z,10.89
2022-11-18T04:21:20.059Z,10.90
2022-11-18T04:24:25.568Z,10.98
2022-11-18T04:27:30.957Z,10.90
2022-11-18T04:30:36.746Z,10.97
2022-11-18T04:33:42.379Z,10.90
2022-11-18T04:36:48.005Z,10.91
2022-11-18T04:39:53.231Z,10.92
2022-11-18T04:42:59.105Z,10.89
2022-11-18T04:46:04.652Z,10.98
2022-11-18T04:49:13.145Z,11.03
2022-11-18T04:52:18.733Z,10.99
2022-11-18T04:55:24.300Z,10.83
2022-11-18T04:58:29.513Z,10.96
2022-11-18T05:01:35.017Z,11.04
2022-11-18T05:04:40.885Z,11.04
2022-11-18T05:07:46.525Z,11.07
2022-11-18T05:10:51.915Z,11.07
2022-11-18T05:13:57.764Z,11.07
2022-11-18T05:17:06.935Z,11.08
2022-11-18T05:20:13.399Z,11.13
2022-11-18T05:23:18.790Z,11.09
2022-11-18T05:26:24.047Z,11.02
2022-11-18T05:29:29.403Z,10.99
2022-11-18T05:32:34.868Z,10.99
2022-11-18T05:35:39.995Z,11.03
2022-11-18T05:38:46.176Z,11.01
2022-11-18T05:42:09.860Z,10.98
2022-11-18T05:45:16.390Z,11.05
2022-11-18T05:48:22.309Z,10.98
2022-11-18T05:51:27.725Z,10.97
2022-11-18T05:54:33.632Z,10.99
2022-11-18T05:57:39.339Z,10.99
2022-11-18T06:00:48.418Z,10.99
2022-11-18T06:03:54.498Z,10.98
2022-11-18T06:07:07.647Z,10.95
2022-11-18T06:10:21.786Z,11.04
2022-11-18T06:13:33.042Z,10.95
2022-11-18T06:16:45.210Z,10.92
2022-11-18T06:19:50.958Z,11.00
2022-11-18T06:22:58.824Z,10.92
2022-11-18T06:26:04.783Z,10.98
2022-11-18T06:29:14.241Z,10.91
2022-11-18T06:32:19.652Z,10.88
2022-11-18T06:35:25.164Z,10.91
2022-11-18T06:38:31.043Z,10.92
2022-11-18T06:41:36.347Z,10.97
2022-11-18T06:44:41.382Z,10.96
2022-11-18T06:47:47.852Z,10.99
2022-11-18T06:50:53.133Z,10.95
2022-11-18T06:53:58.482Z,11.06
2022-11-18T06:57:04.313Z,11.10
2022-11-18T07:00:10.442Z,11.11
2022-11-18T07:03:15.962Z,11.14
2022-11-18T07:06:27.007Z,11.11
2022-11-18T07:09:32.771Z,11.08
2022-11-18T07:12:38.023Z,11.08
2022-11-18T07:15:43.108Z,11.16
2022-11-18T07:18:50.131Z,11.21
2022-11-18T07:21:55.549Z,11.19
2022-11-18T07:25:00.988Z,11.23
2022-11-18T07:28:06.427Z,11.17
2022-11-18T07:31:17.079Z,11.27
2022-11-18T07:34:22.569Z,11.33
2022-11-18T07:37:27.795Z,11.27
2022-11-18T07:40:33.466Z,11.22
2022-11-18T07:43:40.369Z,11.22
2022-11-18T07:46:46.239Z,11.19
2022-11-18T07:49:51.385Z,11.17
2022-11-18T07:52:57.860Z,11.20
2022-11-18T07:56:05.081Z,11.21
2022-11-18T07:59:10.439Z,11.23
2022-11-18T08:02:15.521Z,11.19
2022-11-18T08:05:20.570Z,11.24
2022-11-18T08:08:26.111Z,11.24
2022-11-18T08:11:31.626Z,11.22
2022-11-18T08:14:36.841Z,11.24
2022-11-18T08:17:42.236Z,11.23
2022-11-18T08:20:48.361Z,11.25
2022-11-18T08:23:56.809Z,11.31
2022-11-18T08:27:02.021Z,11.36
2022-11-18T08:30:08.101Z,11.32
2022-11-18T08:33:13.322Z,11.35
2022-11-18T08:36:23.199Z,11.41
2022-11-18T08:39:28.627Z,11.40
2022-11-18T08:42:34.815Z,11.47
2022-11-18T08:45:42.289Z,11.54
2022-11-18T08:48:47.498Z,11.53
2022-11-18T08:51:53.326Z,11.56
2022-11-18T08:55:02.417Z,11.52
2022-11-18T08:58:09.249Z,11.48
2022-11-18T09:01:15.005Z,11.49
2022-11-18T09:04:20.968Z,11.67
2022-11-18T09:07:27.392Z,11.66
2022-11-18T09:10:34.784Z,11.62
2022-11-18T09:14:09.607Z,11.50
2022-11-18T09:17:05.719Z,11.71
2022-11-18T09:20:11.371Z,11.71
2022-11-18T09:23:16.561Z,11.74
2022-11-18T09:26:24.357Z,11.65
2022-11-18T09:29:29.944Z,11.72
2022-11-18T09:32:35.568Z,11.86
2022-11-18T09:35:45.104Z,12.02
2022-11-18T09:38:53.153Z,12.05
2022-11-18T09:42:31.079Z,12.20
2022-11-18T09:45:44.453Z,12.32
2022-11-18T09:49:09.040Z,12.25
2022-11-18T09:52:22.072Z,12.37
2022-11-18T09:55:29.525Z,12.38
2022-11-18T09:58:36.566Z,12.53
2022-11-18T10:01:43.268Z,12.55
2022-11-18T10:04:49.569Z,12.64
2022-11-18T10:07:55.036Z,12.63
2022-11-18T10:11:18.155Z,12.57
2022-11-18T10:14:29.986Z,12.73
2022-11-18T10:17:54.301Z,12.81
2022-11-18T10:21:33.271Z,12.90
2022-11-18T10:24:49.650Z,12.91
2022-11-18T10:27:57.094Z,12.93
2022-11-18T10:31:12.744Z,12.98
2022-11-18T10:34:20.270Z,13.02
2022-11-18T10:38:06.381Z,13.03
2022-11-18T10:41:13.799Z,13.15
2022-11-18T10:44:41.751Z,13.29
2022-11-18T10:48:16.929Z,13.27
2022-11-18T10:51:25.233Z,13.26
2022-11-18T10:54:30.421Z,13.31
2022-11-18T10:57:44.124Z,13.39
2022-11-18T11:00:50.466Z,13.41
2022-11-18T11:04:17.574Z,13.36
2022-11-18T11:07:29.718Z,13.38
2022-11-18T11:10:35.361Z,13.47
2022-11-18T11:13:43.783Z,13.65
2022-11-18T11:16:56.760Z,13.60
2022-11-18T11:20:17.350Z,13.53
2022-11-18T11:23:25.899Z,13.53
2022-11-18T11:30:23.238Z,13.74
2022-11-18T11:33:35.122Z,13.63
2022-11-18T11:36:55.688Z,13.65
2022-11-18T11:40:21.767Z,13.69
2022-11-18T11:43:45.725Z,13.56
2022-11-18T11:47:31.514Z,13.56
2022-11-18T11:51:03.909Z,13.58
2022-11-18T11:54:37.562Z,13.55
2022-11-18T11:58:18.600Z,13.69
2022-11-18T12:01:30.815Z,13.79
2022-11-18T12:05:08.619Z,13.78
2022-11-18T12:08:22.911Z,13.91
2022-11-18T12:11:36.366Z,13.80
2022-11-18T12:14:48.538Z,13.89
2022-11-18T12:18:04.284Z,14.04
2022-11-18T12:21:42.654Z,13.93
2022-11-18T12:24:47.847Z,14.04
2022-11-18T12:28:00.672Z,14.10
2022-11-18T12:31:18.414Z,13.95
2022-11-18T12:34:26.655Z,13.98
2022-11-18T12:37:32.027Z,13.82
2022-11-18T12:40:37.536Z,13.78
2022-11-18T12:43:49.312Z,13.70
2022-11-18T12:46:56.758Z,13.79
2022-11-18T12:50:16.200Z,13.95
2022-11-18T12:53:45.970Z,14.00
2022-11-18T12:56:52.637Z,14.01
2022-11-18T12:59:58.799Z,13.87
2022-11-18T13:03:04.652Z,14.02
2022-11-18T13:06:34.337Z,13.95
2022-11-18T13:09:39.997Z,13.93
2022-11-18T13:12:45.162Z,13.97
2022-11-18T13:16:09.845Z,13.98
2022-11-18T13:19:24.100Z,14.01
2022-11-18T13:22:47.997Z,13.89
2022-11-18T13:25:53.446Z,13.98
2022-11-18T13:29:12.616Z,13.99
2022-11-18T13:32:24.735Z,13.92
2022-11-18T13:35:30.266Z,13.95
2022-11-18T13:38:35.960Z,13.94
2022-11-18T13:41:42.048Z,13.93
2022-11-18T13:44:57.962Z,13.97
2022-11-18T13:48:11.021Z,13.81
2022-11-18T13:51:18.051Z,13.77
2022-11-18T13:54:28.748Z,13.82
2022-11-18T13:57:36.174Z,13.87
2022-11-18T14:00:41.587Z,13.80
2022-11-18T14:03:58.968Z,13.78
2022-11-18T14:07:22.978Z,13.80
2022-11-18T14:10:44.966Z,13.76
2022-11-18T14:13:52.904Z,13.69
2022-11-18T14:17:30.069Z,13.69
2022-11-18T14:20:35.772Z,13.65
2022-11-18T14:23:44.448Z,13.66
2022-11-18T14:26:50.048Z,13.63
2022-11-18T14:29:56.015Z,13.64
2022-11-18T14:33:27.570Z,13.63
2022-11-18T14:36:33.006Z,13.60
2022-11-18T14:39:38.778Z,13.58
2022-11-18T14:42:44.043Z,13.59
2022-11-18T14:45:50.140Z,13.59
2022-11-18T14:48:55.485Z,13.56
2022-11-18T14:52:02.975Z,13.48
2022-11-18T14:55:09.310Z,13.46
2022-11-18T14:58:15.561Z,13.41
2022-11-18T15:01:24.876Z,13.37
2022-11-18T15:04:34.810Z,13.36
2022-11-18T15:07:40.585Z,13.29
2022-11-18T15:10:46.307Z,13.19
2022-11-18T15:13:51.769Z,13.07
2022-11-18T15:16:56.992Z,13.04
2022-11-18T15:20:02.221Z,12.96
2022-11-18T15:23:07.302Z,12.87
2022-11-18T15:26:15.481Z,12.84
2022-11-18T15:29:24.248Z,12.72
2022-11-18T15:32:29.559Z,12.68
2022-11-18T15:35:35.198Z,12.61
2022-11-18T15:38:41.438Z,12.56
2022-11-18T15:41:47.436Z,12.46
2022-11-18T15:44:52.570Z,12.38
2022-11-18T15:47:58.269Z,12.34
2022-11-18T15:51:06.485Z,12.32
2022-11-18T15:54:16.414Z,12.24
2022-11-18T15:57:22.992Z,12.26
2022-11-18T16:00:28.694Z,12.25
2022-11-18T16:03:37.272Z,12.15
2022-11-18T16:06:43.758Z,11.96
2022-11-18T16:10:08.931Z,11.87
2022-11-18T16:13:14.435Z,11.81
2022-11-18T16:16:21.806Z,11.68
2022-11-18T16:19:30.094Z,11.55
2022-11-18T16:22:35.725Z,11.59
2022-11-18T16:25:46.589Z,11.65
2022-11-18T16:28:53.855Z,11.62
2022-11-18T16:31:59.350Z,11.50
2022-11-18T16:35:04.999Z,11.47
2022-11-18T16:38:10.377Z,11.38
2022-11-18T16:41:34.281Z,11.23
2022-11-18T16:44:40.004Z,11.29
2022-11-18T16:47:45.962Z,11.16
2022-11-18T16:51:20.062Z,11.17
2022-11-18T16:54:28.523Z,11.17
2022-11-18T16:57:34.182Z,11.13
2022-11-18T17:01:16.016Z,11.19
2022-11-18T17:04:05.834Z,11.15
2022-11-18T17:07:11.820Z,11.15
2022-11-18T17:10:20.199Z,11.07
2022-11-18T17:13:35.567Z,10.98
2022-11-18T17:16:41.683Z,10.76
2022-11-18T17:19:48.039Z,10.86
2022-11-18T17:22:53.378Z,10.86
2022-11-18T17:26:00.315Z,10.83
2022-11-18T17:29:06.010Z,10.81
2022-11-18T17:32:11.392Z,10.77
2022-11-18T17:35:17.723Z,10.70
2022-11-18T17:38:23.319Z,10.73
2022-11-18T17:41:47.988Z,10.72
2022-11-18T17:44:53.569Z,10.67
2022-11-18T17:47:59.371Z,10.64
2022-11-18T17:51:06.636Z,10.68
2022-11-18T17:54:13.513Z,10.68
2022-11-18T17:57:18.988Z,10.67
2022-11-18T18:00:24.200Z,10.57
2022-11-18T18:03:30.162Z,10.53
2022-11-18T18:06:35.674Z,10.50
2022-11-18T18:09:41.777Z,10.40
2022-11-18T18:13:05.894Z,10.27
2022-11-18T18:16:11.462Z,10.28
2022-11-18T18:19:19.587Z,10.47
2022-11-18T18:22:25.777Z,10.35
2022-11-18T18:25:31.628Z,10.21
2022-11-18T18:28:38.226Z,10.20
2022-11-18T18:31:43.869Z,10.01
2022-11-18T18:34:49.882Z,10.15
2022-11-18T18:37:56.213Z,10.26
2022-11-18T18:41:07.053Z,10.26
2022-11-18T18:44:18.268Z,10.28
2022-11-18T18:47:24.556Z,10.21
2022-11-18T18:50:32.629Z,10.11
2022-11-18T18:53:38.742Z,10.04
2022-11-18T18:56:44.254Z,10.02
2022-11-18T18:59:49.731Z,10.00
2022-11-18T19:02:55.153Z,10.02
2022-11-18T19:06:34.596Z,10.01
2022-11-18T19:09:27.434Z,9.91
2022-11-18T19:12:44.349Z,9.96
2022-11-18T19:15:50.022Z,9.92
2022-11-18T19:18:59.180Z,9.83
2022-11-18T19:22:04.814Z,9.94
2022-11-18T19:25:10.983Z,9.89
2022-11-18T19:28:16.496Z,9.72
2022-11-18T19:31:22.255Z,9.61
2022-11-18T19:34:28.202Z,9.58
2022-11-18T19:37:33.793Z,9.57
2022-11-18T19:40:39.793Z,9.37
2022-11-18T19:43:45.583Z,9.59
2022-11-18T19:46:51.330Z,9.54
2022-11-18T19:49:57.204Z,9.51
2022-11-18T19:53:23.209Z,9.50
2022-11-18T19:56:28.775Z,9.59
2022-11-18T19:59:34.814Z,9.71
2022-11-18T20:02:40.732Z,9.46
2022-11-18T20:05:52.787Z,9.50
2022-11-18T20:08:58.793Z,9.60
2022-11-18T20:12:05.185Z,9.49
2022-11-18T20:15:11.636Z,9.43
2022-11-18T20:18:17.527Z,9.47
2022-11-18T20:21:24.872Z,9.60
2022-11-18T20:24:30.841Z,9.54
2022-11-18T20:27:36.481Z,9.50
2022-11-18T20:30:41.980Z,9.54
2022-11-18T20:33:50.742Z,9.47
2022-11-18T20:36:56.347Z,9.45
2022-11-18T20:40:02.356Z,9.40
2022-11-18T20:43:13.231Z,9.43
2022-11-18T20:46:21.369Z,9.38
2022-11-18T20:49:26.876Z,9.39
2022-11-18T20:52:35.281Z,9.44
2022-11-18T20:55:41.564Z,9.35
2022-11-18T20:58:47.905Z,9.40
2022-11-18T21:01:53.257Z,9.37
2022-11-18T21:04:58.913Z,9.25
2022-11-18T21:08:04.568Z,9.26
2022-11-18T21:11:13.156Z,9.21
2022-11-18T21:14:23.451Z,9.22
2022-11-18T21:17:30.521Z,9.20
2022-11-18T21:20:55.296Z,9.09
2022-11-18T21:24:02.505Z,9.15
2022-11-18T21:27:08.305Z,9.09
2022-11-18T21:30:14.086Z,9.14
2022-11-18T21:33:19.702Z,9.06
2022-11-18T21:36:27.406Z,9.06
2022-11-18T21:39:33.356Z,8.91
2022-11-18T21:42:40.275Z,9.06
2022-11-18T21:45:45.924Z,9.15
2022-11-18T21:48:54.521Z,9.00
2022-11-18T21:52:04.475Z,8.95
2022-11-18T21:55:10.249Z,8.92
2022-11-18T21:58:16.313Z,9.00
2022-11-18T22:01:27.424Z,8.93
2022-11-18T22:04:51.275Z,8.90
2022-11-18T22:07:56.598Z,9.02
2022-11-18T22:11:04.085Z,8.99
2022-11-18T22:14:09.803Z,8.72
2022-11-18T22:17:15.777Z,8.75
2022-11-18T22:20:21.824Z,8.93
2022-11-18T22:23:32.827Z,8.89
2022-11-18T22:26:38.291Z,8.83
2022-11-18T22:29:44.053Z,8.74
2022-11-18T22:32:49.394Z,8.63
2022-11-18T22:35:54.819Z,8.61
2022-11-18T22:39:00.385Z,8.55
2022-11-18T22:42:24.845Z,8.79
2022-11-18T22:45:30.288Z,8.69
2022-11-18T22:48:36.041Z,8.35
2022-11-18T22:51:42.198Z,8.45
2022-11-18T22:54:47.831Z,8.32
2022-11-18T22:57:53.542Z,8.22
2022-11-18T23:01:07.475Z,8.28
2022-11-18T23:04:12.888Z,8.50
2022-11-18T23:07:18.698Z,8.61
2022-11-18T23:10:24.398Z,8.67
2022-11-18T23:13:48.571Z,8.54
2022-11-18T23:16:54.393Z,8.51
2022-11-18T23:19:59.615Z,8.39
2022-11-18T23:23:05.163Z,8.43
2022-11-18T23:26:13.612Z,8.51
2022-11-18T23:29:19.299Z,8.46
2022-11-18T23:32:25.089Z,8.44
2022-11-18T23:35:30.624Z,8.49
2022-11-18T23:38:37.633Z,8.44
2022-11-18T23:41:43.279Z,8.39
2022-11-18T23:44:53.309Z,8.36
2022-11-18T23:47:58.782Z,8.41
2022-11-18T23:51:19.161Z,8.50
2022-11-18T23:54:24.552Z,8.48
2022-11-18T23:57:30.422Z,8.63
